<?xml version="1.0" encoding="UTF-8" standalone="no" ?>
<gpx xmlns="http://www.topografix.com/GPX/1/1" xmlns:xsi="http://www.w3.org/2001/XMLSchema-instance" xsi:schemaLocation="http://www.topografix.com/GPX/1/1 http://www.topografix.com/GPX/1/1/gpx.xsd" version="1.1" creator="VisuGPX - https://www.visugpx.com">
  <metadata>
    <name>Severac_MaraisChateaux_16-20km</name>
    <desc><![CDATA[gnerando idor:6533329_7079266_7112180]]></desc>
  </metadata>
  <trk>
    <name><![CDATA[Severac_MaraisChateaux_15.8km-7112180]]></name>
    <extensions>
      <line xmlns="http://www.topografix.com/GPX/gpx_style/0/2">
        <color>00FF00</color>
        <width>4</width>
      </line>
    </extensions>
    <trkseg>
      <trkpt lat="47.54771" lon="-2.07802">
        <ele>34</ele>
        <time>2023-11-13T19:19:32Z</time>
      </trkpt>
      <trkpt lat="47.54843" lon="-2.07759">
        <ele>32</ele>
        <time>2023-11-13T19:21:16Z</time>
      </trkpt>
      <trkpt lat="47.54864" lon="-2.07931">
        <ele>36</ele>
        <time>2023-11-13T19:23:53Z</time>
      </trkpt>
      <trkpt lat="47.54704" lon="-2.07965">
        <ele>36</ele>
        <time>2023-11-13T19:27:29Z</time>
      </trkpt>
      <trkpt lat="47.54722" lon="-2.08055">
        <ele>36</ele>
        <time>2023-11-13T19:28:53Z</time>
      </trkpt>
      <trkpt lat="47.54675" lon="-2.08081">
        <ele>34</ele>
        <time>2023-11-13T19:30:00Z</time>
      </trkpt>
      <trkpt lat="47.5473" lon="-2.08193">
        <ele>37</ele>
        <time>2023-11-13T19:32:05Z</time>
      </trkpt>
      <trkpt lat="47.54759" lon="-2.08437">
        <ele>40</ele>
        <time>2023-11-13T19:35:48Z</time>
      </trkpt>
      <trkpt lat="47.54809" lon="-2.08729">
        <ele>46</ele>
        <time>2023-11-13T19:40:19Z</time>
      </trkpt>
      <trkpt lat="47.55029" lon="-2.08665">
        <ele>45</ele>
        <time>2023-11-13T19:45:19Z</time>
      </trkpt>
      <trkpt lat="47.55255" lon="-2.09999">
        <ele>34</ele>
        <time>2023-11-13T20:05:57Z</time>
      </trkpt>
      <trkpt lat="47.55237" lon="-2.10072">
        <ele>29</ele>
        <time>2023-11-13T20:07:07Z</time>
      </trkpt>
      <trkpt lat="47.5535" lon="-2.10081">
        <ele>22</ele>
        <time>2023-11-13T20:09:38Z</time>
      </trkpt>
      <trkpt lat="47.55399" lon="-2.10175">
        <ele>22</ele>
        <time>2023-11-13T20:11:25Z</time>
      </trkpt>
      <trkpt lat="47.55492" lon="-2.10141">
        <ele>20</ele>
        <time>2023-11-13T20:13:33Z</time>
      </trkpt>
      <trkpt lat="47.55533" lon="-2.10077">
        <ele>21</ele>
        <time>2023-11-13T20:14:53Z</time>
      </trkpt>
      <trkpt lat="47.55628" lon="-2.10038">
        <ele>17</ele>
        <time>2023-11-13T20:17:04Z</time>
      </trkpt>
      <trkpt lat="47.55649" lon="-2.09948">
        <ele>16</ele>
        <time>2023-11-13T20:18:30Z</time>
      </trkpt>
      <trkpt lat="47.55788" lon="-2.09742">
        <ele>12</ele>
        <time>2023-11-13T20:22:52Z</time>
      </trkpt>
      <trkpt lat="47.5568" lon="-2.09446">
        <ele>20</ele>
        <time>2023-11-13T20:27:55Z</time>
      </trkpt>
      <trkpt lat="47.55721" lon="-2.09446">
        <ele>19</ele>
        <time>2023-11-13T20:28:50Z</time>
      </trkpt>
      <trkpt lat="47.55782" lon="-2.09394">
        <ele>18</ele>
        <time>2023-11-13T20:30:24Z</time>
      </trkpt>
      <trkpt lat="47.55869" lon="-2.09489">
        <ele>16</ele>
        <time>2023-11-13T20:32:48Z</time>
      </trkpt>
      <trkpt lat="47.5595" lon="-2.09553">
        <ele>16</ele>
        <time>2023-11-13T20:34:51Z</time>
      </trkpt>
      <trkpt lat="47.56025" lon="-2.09579">
        <ele>18</ele>
        <time>2023-11-13T20:36:34Z</time>
      </trkpt>
      <trkpt lat="47.56028" lon="-2.09802">
        <ele>9</ele>
        <time>2023-11-13T20:39:54Z</time>
      </trkpt>
      <trkpt lat="47.56332" lon="-2.09854">
        <ele>9</ele>
        <time>2023-11-13T20:46:43Z</time>
      </trkpt>
      <trkpt lat="47.56329" lon="-2.09746">
        <ele>11</ele>
        <time>2023-11-13T20:48:20Z</time>
      </trkpt>
      <trkpt lat="47.56572" lon="-2.09596">
        <ele>3</ele>
        <time>2023-11-13T20:54:11Z</time>
      </trkpt>
      <trkpt lat="47.5674" lon="-2.09798">
        <ele>3</ele>
        <time>2023-11-13T20:59:00Z</time>
      </trkpt>
      <trkpt lat="47.56969" lon="-2.09394">
        <ele>2</ele>
        <time>2023-11-13T21:06:55Z</time>
      </trkpt>
      <trkpt lat="47.57041" lon="-2.09467">
        <ele>2</ele>
        <time>2023-11-13T21:08:52Z</time>
      </trkpt>
      <trkpt lat="47.57328" lon="-2.08832">
        <ele>1</ele>
        <time>2023-11-13T21:20:20Z</time>
      </trkpt>
      <trkpt lat="47.57528" lon="-2.0806">
        <ele>2</ele>
        <time>2023-11-13T21:32:44Z</time>
      </trkpt>
      <trkpt lat="47.57487" lon="-2.07952">
        <ele>2</ele>
        <time>2023-11-13T21:34:36Z</time>
      </trkpt>
      <trkpt lat="47.57539" lon="-2.07755">
        <ele>1</ele>
        <time>2023-11-13T21:37:46Z</time>
      </trkpt>
      <trkpt lat="47.57235" lon="-2.07716">
        <ele>3</ele>
        <time>2023-11-13T21:44:33Z</time>
      </trkpt>
      <trkpt lat="47.57154" lon="-2.07652">
        <ele>3</ele>
        <time>2023-11-13T21:46:36Z</time>
      </trkpt>
      <trkpt lat="47.57096" lon="-2.07523">
        <ele>4</ele>
        <time>2023-11-13T21:48:55Z</time>
      </trkpt>
      <trkpt lat="47.57073" lon="-2.07004">
        <ele>5</ele>
        <time>2023-11-13T21:56:44Z</time>
      </trkpt>
      <trkpt lat="47.57007" lon="-2.06931">
        <ele>6</ele>
        <time>2023-11-13T21:58:34Z</time>
      </trkpt>
      <trkpt lat="47.57117" lon="-2.06566">
        <ele>3</ele>
        <time>2023-11-13T22:04:34Z</time>
      </trkpt>
      <trkpt lat="47.57039" lon="-2.05867">
        <ele>-1</ele>
        <time>2023-11-13T22:15:11Z</time>
      </trkpt>
      <trkpt lat="47.57053" lon="-2.05399">
        <ele>1</ele>
        <time>2023-11-13T22:22:13Z</time>
      </trkpt>
      <trkpt lat="47.56952" lon="-2.04863">
        <ele>10</ele>
        <time>2023-11-13T22:30:34Z</time>
      </trkpt>
      <trkpt lat="47.56856" lon="-2.04725">
        <ele>7</ele>
        <time>2023-11-13T22:33:33Z</time>
      </trkpt>
      <trkpt lat="47.56729" lon="-2.04747">
        <ele>8</ele>
        <time>2023-11-13T22:36:23Z</time>
      </trkpt>
      <trkpt lat="47.56671" lon="-2.04828">
        <ele>11</ele>
        <time>2023-11-13T22:38:10Z</time>
      </trkpt>
      <trkpt lat="47.56697" lon="-2.04923">
        <ele>16</ele>
        <time>2023-11-13T22:39:42Z</time>
      </trkpt>
      <trkpt lat="47.56752" lon="-2.05292">
        <ele>18</ele>
        <time>2023-11-13T22:45:22Z</time>
      </trkpt>
      <trkpt lat="47.56653" lon="-2.05416">
        <ele>12</ele>
        <time>2023-11-13T22:48:15Z</time>
      </trkpt>
      <trkpt lat="47.56694" lon="-2.05923">
        <ele>16</ele>
        <time>2023-11-13T22:55:55Z</time>
      </trkpt>
      <trkpt lat="47.56448" lon="-2.05991">
        <ele>35</ele>
        <time>2023-11-13T23:01:29Z</time>
      </trkpt>
      <trkpt lat="47.56323" lon="-2.06026">
        <ele>38</ele>
        <time>2023-11-13T23:04:19Z</time>
      </trkpt>
      <trkpt lat="47.5637" lon="-2.06292">
        <ele>35</ele>
        <time>2023-11-13T23:08:26Z</time>
      </trkpt>
      <trkpt lat="47.56506" lon="-2.06395">
        <ele>32</ele>
        <time>2023-11-13T23:11:50Z</time>
      </trkpt>
      <trkpt lat="47.5663" lon="-2.06429">
        <ele>27</ele>
        <time>2023-11-13T23:14:38Z</time>
      </trkpt>
      <trkpt lat="47.56648" lon="-2.06528">
        <ele>27</ele>
        <time>2023-11-13T23:16:11Z</time>
      </trkpt>
      <trkpt lat="47.56596" lon="-2.06755">
        <ele>25</ele>
        <time>2023-11-13T23:19:47Z</time>
      </trkpt>
      <trkpt lat="47.56488" lon="-2.06729">
        <ele>22</ele>
        <time>2023-11-13T23:22:13Z</time>
      </trkpt>
      <trkpt lat="47.56028" lon="-2.06729">
        <ele>24</ele>
        <time>2023-11-13T23:32:26Z</time>
      </trkpt>
      <trkpt lat="47.55944" lon="-2.06669">
        <ele>28</ele>
        <time>2023-11-13T23:34:31Z</time>
      </trkpt>
      <trkpt lat="47.55822" lon="-2.06674">
        <ele>35</ele>
        <time>2023-11-13T23:37:14Z</time>
      </trkpt>
      <trkpt lat="47.55796" lon="-2.06789">
        <ele>32</ele>
        <time>2023-11-13T23:39:03Z</time>
      </trkpt>
      <trkpt lat="47.55727" lon="-2.06807">
        <ele>32</ele>
        <time>2023-11-13T23:40:36Z</time>
      </trkpt>
      <trkpt lat="47.55666" lon="-2.06789">
        <ele>32</ele>
        <time>2023-11-13T23:41:59Z</time>
      </trkpt>
      <trkpt lat="47.5568" lon="-2.06639">
        <ele>33</ele>
        <time>2023-11-13T23:44:16Z</time>
      </trkpt>
      <trkpt lat="47.5553" lon="-2.06566">
        <ele>21</ele>
        <time>2023-11-13T23:47:47Z</time>
      </trkpt>
      <trkpt lat="47.55229" lon="-2.06506">
        <ele>23</ele>
        <time>2023-11-13T23:54:32Z</time>
      </trkpt>
      <trkpt lat="47.55191" lon="-2.06472">
        <ele>24</ele>
        <time>2023-11-13T23:55:31Z</time>
      </trkpt>
      <trkpt lat="47.54759" lon="-2.0639">
        <ele>23</ele>
        <time>2023-11-14T00:05:12Z</time>
      </trkpt>
      <trkpt lat="47.5469" lon="-2.06536">
        <ele>21</ele>
        <time>2023-11-14T00:07:53Z</time>
      </trkpt>
      <trkpt lat="47.54762" lon="-2.06648">
        <ele>18</ele>
        <time>2023-11-14T00:10:12Z</time>
      </trkpt>
      <trkpt lat="47.54785" lon="-2.06734">
        <ele>19</ele>
        <time>2023-11-14T00:11:35Z</time>
      </trkpt>
      <trkpt lat="47.54838" lon="-2.06811">
        <ele>18</ele>
        <time>2023-11-14T00:13:14Z</time>
      </trkpt>
      <trkpt lat="47.54794" lon="-2.06965">
        <ele>17</ele>
        <time>2023-11-14T00:15:45Z</time>
      </trkpt>
      <trkpt lat="47.55092" lon="-2.07231">
        <ele>16</ele>
        <time>2023-11-14T00:23:29Z</time>
      </trkpt>
      <trkpt lat="47.55011" lon="-2.07652">
        <ele>24</ele>
        <time>2023-11-14T00:30:04Z</time>
      </trkpt>
      <trkpt lat="47.54797" lon="-2.07764">
        <ele>33</ele>
        <time>2023-11-14T00:35:07Z</time>
      </trkpt>
    </trkseg>
  </trk>
</gpx>